Time;durP1;ratioP1;P1;durP2;ratioP2;P2;SDS_P1;SDS_P2;PMS_P1;PMS_P2;Temp;Humidity;BMP_temperature;BMP_pressure;BME280_temperature;BME280_humidity;BME280_pressure;Samples;Min_cycle;Max_cycle;Signal;HPM_P1;HPM_P2
2021/04/01 00:01:25;;;;;;;33.10;24.92;;;;;;;13.03;60.48;100887.06;1815495;78;21061;-57
2021/04/01 00:03:53;;;;;;;32.67;25.32;;;;;;;13.02;60.42;100882.67;1815608;79;20982;-56
2021/04/01 00:06:21;;;;;;;39.38;27.15;;;;;;;12.99;60.48;100888.14;1815653;79;21489;-57
2021/04/01 00:08:48;;;;;;;37.78;25.25;;;;;;;12.95;60.57;100882.93;1815483;77;20975;-57
2021/04/01 00:11:17;;;;;;;41.40;27.95;;;;;;;12.93;60.62;100881.57;1815567;79;21452;-57
2021/04/01 00:13:45;;;;;;;38.17;26.05;;;;;;;12.93;60.61;100881.02;1815612;79;21152;-57
2021/04/01 00:16:13;;;;;;;39.15;27.10;;;;;;;12.94;60.61;100884.57;1815570;79;20999;-58
2021/04/01 00:18:41;;;;;;;36.50;25.97;;;;;;;12.90;60.62;100876.09;1815587;78;21151;-57
2021/04/01 00:21:10;;;;;;;36.55;24.87;;;;;;;12.94;60.62;100876.38;1815592;79;21076;-57
2021/04/01 00:23:37;;;;;;;35.92;25.35;;;;;;;12.98;60.63;100880.22;1786266;79;21380;-57
2021/04/01 00:26:06;;;;;;;32.95;22.62;;;;;;;12.99;60.63;100875.03;1815557;79;21921;-57
2021/04/01 00:28:34;;;;;;;34.78;23.30;;;;;;;13.01;60.57;100872.84;1815632;78;20998;-58
2021/04/01 00:31:02;;;;;;;37.20;25.62;;;;;;;12.99;60.54;100865.47;1815595;78;21627;-58
2021/04/01 00:33:30;;;;;;;33.35;23.92;;;;;;;12.98;60.57;100862.47;1815615;79;21493;-59
2021/04/01 00:35:58;;;;;;;33.67;25.00;;;;;;;12.97;60.62;100861.63;1817174;78;21541;-58
2021/04/01 00:38:27;;;;;;;35.30;25.12;;;;;;;12.97;60.57;100864.90;1818738;78;21022;-57
2021/04/01 00:40:56;;;;;;;36.73;26.25;;;;;;;12.98;60.53;100861.92;1818677;78;21002;-57
2021/04/01 00:43:24;;;;;;;37.05;25.52;;;;;;;13.01;60.52;100858.37;1818805;79;21587;-57
2021/04/01 00:45:52;;;;;;;34.78;25.75;;;;;;;13.02;60.44;100862.19;1818715;78;21184;-56
2021/04/01 00:48:20;;;;;;;39.70;26.12;;;;;;;13.01;60.43;100852.91;1818690;78;21389;-58
2021/04/01 00:50:48;;;;;;;36.05;24.40;;;;;;;12.97;60.43;100849.88;1818676;79;21632;-56
2021/04/01 00:53:17;;;;;;;33.60;25.30;;;;;;;12.89;60.55;100843.05;1813254;79;20933;-57
2021/04/01 00:55:45;;;;;;;35.08;25.80;;;;;;;12.85;60.69;100842.48;1812681;79;21665;-56
2021/04/01 00:58:14;;;;;;;33.90;24.20;;;;;;;12.83;60.80;100838.66;1812694;79;21009;-57
2021/04/01 01:00:43;;;;;;;33.42;23.47;;;;;;;12.82;60.79;100830.72;1812604;79;21321;-57
2021/04/01 01:03:11;;;;;;;34.45;25.15;;;;;;;12.81;60.84;100823.62;1812751;79;21508;-57
2021/04/01 01:05:41;;;;;;;37.17;24.90;;;;;;;12.79;60.91;100821.17;1812741;79;20894;-57
2021/04/01 01:08:08;;;;;;;38.25;25.32;;;;;;;12.75;60.95;100817.33;1812504;79;20914;-56
2021/04/01 01:10:38;;;;;;;32.42;25.12;;;;;;;12.79;60.94;100823.08;1812738;79;21175;-57
2021/04/01 01:13:06;;;;;;;39.45;26.15;;;;;;;12.79;60.89;100823.90;1812646;79;21204;-56
2021/04/01 01:15:35;;;;;;;38.35;26.12;;;;;;;12.79;60.83;100816.25;1812592;79;21095;-57
2021/04/01 01:18:03;;;;;;;37.42;25.40;;;;;;;12.81;60.75;100818.97;1812787;79;21543;-58
2021/04/01 01:20:31;;;;;;;35.73;26.82;;;;;;;12.79;60.66;100808.88;1812593;79;21092;-56
2021/04/01 01:23:07;;;;;;;38.25;27.27;;;;;;;12.80;60.63;100805.60;1809477;79;21051;-57
2021/04/01 01:25:35;;;;;;;38.15;27.62;;;;;;;12.80;60.56;100815.98;1812861;79;21280;-56
2021/04/01 01:28:05;;;;;;;38.30;26.20;;;;;;;12.81;60.50;100808.05;1812746;79;21143;-57
2021/04/01 01:30:33;;;;;;;36.83;25.95;;;;;;;12.82;60.46;100802.86;1812869;79;20926;-57
2021/04/01 01:33:05;;;;;;;42.95;27.55;;;;;;;12.81;60.33;100799.86;1812784;79;21155;-57
2021/04/01 01:35:35;;;;;;;43.65;27.67;;;;;;;12.79;60.34;100794.41;1812660;79;21583;-56
2021/04/01 01:38:07;;;;;;;43.15;28.62;;;;;;;12.78;60.33;100803.15;1812867;79;21581;-57
2021/04/01 01:40:35;;;;;;;43.40;29.42;;;;;;;12.75;60.29;100787.84;1812637;79;21028;-57
2021/04/01 01:43:06;;;;;;;44.20;27.73;;;;;;;12.73;60.28;100787.57;1812717;79;21559;-56
2021/04/01 01:45:35;;;;;;;37.98;26.35;;;;;;;12.77;60.24;100781.00;1812877;79;21027;-56
2021/04/01 01:48:05;;;;;;;42.23;27.22;;;;;;;12.79;60.19;100781.58;1812857;79;20969;-58
2021/04/01 01:50:34;;;;;;;42.38;27.42;;;;;;;12.78;60.06;100776.39;1812762;79;21350;-56
2021/04/01 01:53:02;;;;;;;39.60;27.48;;;;;;;12.77;60.05;100776.09;1817544;78;21567;-56
2021/04/01 01:55:31;;;;;;;43.63;27.37;;;;;;;12.79;59.93;100778.03;1818847;78;21176;-56
2021/04/01 01:58:02;;;;;;;47.55;27.27;;;;;;;12.81;59.87;100779.94;1818906;78;20950;-56
2021/04/01 02:00:38;;;;;;;38.30;26.87;;;;;;;12.80;59.81;100774.20;1818810;78;21057;-57
2021/04/01 02:03:07;;;;;;;39.73;27.90;;;;;;;12.82;59.74;100785.11;1815274;78;21369;-56
2021/04/01 02:05:37;;;;;;;44.00;28.02;;;;;;;12.81;59.68;100778.02;1818879;78;21551;-57
2021/04/01 02:08:09;;;;;;;37.78;27.40;;;;;;;12.76;59.64;100773.09;1818746;78;21133;-57
2021/04/01 02:10:44;;;;;;;42.13;27.85;;;;;;;12.73;59.71;100774.47;1818820;78;21043;-57
2021/04/01 02:13:19;;;;;;;44.70;28.35;;;;;;;12.72;59.71;100770.07;1818800;78;21001;-57
2021/04/01 02:15:50;;;;;;;42.13;27.55;;;;;;;12.72;59.75;100763.25;1818830;78;22382;-57
2021/04/01 02:18:21;;;;;;;41.05;28.60;;;;;;;12.72;59.69;100760.00;1818754;78;20990;-57
2021/04/01 02:20:51;;;;;;;41.15;27.98;;;;;;;12.69;59.64;100753.70;1818854;78;20888;-56
2021/04/01 02:23:22;;;;;;;39.67;27.87;;;;;;;12.63;59.71;100750.69;1818680;78;21469;-56
2021/04/01 02:25:53;;;;;;;39.33;27.52;;;;;;;12.59;59.74;100755.59;1818892;78;20911;-57
2021/04/01 02:28:22;;;;;;;39.73;27.65;;;;;;;12.56;59.81;100754.74;1818914;78;22086;-56
2021/04/01 02:30:53;;;;;;;39.50;28.42;;;;;;;12.51;59.86;100752.00;1818789;78;21619;-57
2021/04/01 02:33:25;;;;;;;39.33;26.33;;;;;;;12.49;59.96;100754.19;1818820;78;21062;-55
2021/04/01 02:35:53;;;;;;;43.20;28.60;;;;;;;12.48;59.96;100753.92;1817933;78;21137;-56
2021/04/01 02:38:22;;;;;;;37.95;27.95;;;;;;;12.48;59.91;100754.73;1815642;79;21033;-57
2021/04/01 02:40:50;;;;;;;40.52;28.65;;;;;;;12.50;59.83;100756.64;1815736;79;22302;-56
2021/04/01 02:43:26;;;;;;;41.18;27.90;;;;;;;12.50;59.75;100755.83;1815597;79;21768;-56
2021/04/01 02:45:51;;;;;;;41.88;28.62;;;;;;;12.45;59.71;100758.80;1815359;79;21085;-56
2021/04/01 02:48:19;;;;;;;40.58;28.85;;;;;;;12.41;59.68;100759.06;1815623;79;21081;-56
2021/04/01 02:50:49;;;;;;;43.17;27.90;;;;;;;12.37;59.66;100760.70;1815810;79;21488;-57
2021/04/01 02:53:18;;;;;;;42.73;28.52;;;;;;;12.30;59.71;100764.75;1810093;79;21453;-55
2021/04/01 02:55:46;;;;;;;45.70;28.80;;;;;;;12.23;59.73;100766.91;1809430;79;21916;-58
2021/04/01 02:58:17;;;;;;;43.02;28.50;;;;;;;12.13;59.85;100757.59;1809670;79;20970;-58
2021/04/01 03:00:45;;;;;;;43.25;28.90;;;;;;;12.11;59.95;100765.74;1809657;79;21107;-58
2021/04/01 03:05:56;;;;;;;44.75;28.62;;;;;;;12.09;59.91;100752.92;1850859;77;28019;-57
2021/04/01 03:08:24;;;;;;;44.27;27.67;;;;;;;12.02;59.97;100754.54;1799221;78;20994;-58
2021/04/01 03:10:54;;;;;;;41.15;25.90;;;;;;;12.01;59.91;100761.05;1790751;80;20903;-58
2021/04/01 03:13:23;;;;;;;37.42;26.60;;;;;;;11.95;59.98;100760.20;1790422;79;21073;-56
2021/04/01 03:15:51;;;;;;;42.10;26.00;;;;;;;11.90;60.14;100756.09;1790612;80;20922;-56
2021/04/01 03:18:21;;;;;;;40.98;27.20;;;;;;;11.87;60.22;100753.91;1790511;80;20923;-56
2021/04/01 03:20:50;;;;;;;36.98;26.48;;;;;;;11.86;60.27;100751.42;1790594;80;21086;-57
2021/04/01 03:23:18;;;;;;;41.60;26.95;;;;;;;11.83;60.27;100754.70;1790364;79;21380;-57
2021/04/01 03:25:46;;;;;;;42.78;26.80;;;;;;;11.81;60.30;100746.76;1790473;80;21910;-56
2021/04/01 03:28:16;;;;;;;41.25;27.15;;;;;;;11.80;60.30;100748.36;1790678;80;21358;-57
2021/04/01 03:30:51;;;;;;;40.40;27.60;;;;;;;11.79;60.25;100746.18;1790591;80;21449;-56
2021/04/01 03:33:14;;;;;;;39.45;26.20;;;;;;;11.85;60.18;100753.88;1789647;80;20946;-56
2021/04/01 03:35:41;;;;;;;38.88;26.42;;;;;;;11.86;60.08;100733.19;1760153;80;21364;-57
2021/04/01 03:38:13;;;;;;;34.80;26.60;;;;;;;11.86;60.03;100738.64;1790456;80;20971;-57
2021/04/01 03:40:40;;;;;;;40.43;27.35;;;;;;;11.85;60.01;100746.52;1790646;80;20942;-57
2021/04/01 03:43:09;;;;;;;44.30;28.15;;;;;;;11.83;60.01;100742.42;1790493;79;21002;-59
2021/04/01 03:45:38;;;;;;;38.90;26.97;;;;;;;11.83;59.92;100743.79;1790530;80;21018;-60
2021/04/01 03:48:08;;;;;;;42.88;28.10;;;;;;;11.81;59.90;100742.67;1790566;80;21168;-57
2021/04/01 03:50:36;;;;;;;40.10;26.20;;;;;;;11.83;59.85;100747.33;1790596;80;21598;-58
2021/04/01 03:53:05;;;;;;;36.15;25.45;;;;;;;11.88;59.73;100741.09;1790394;80;21504;-57
2021/04/01 03:58:22;;;;;;;42.93;28.02;;;;;;;11.91;59.51;100735.94;1790463;80;20907;-60
2021/04/01 04:00:36;;;;;;;38.10;26.85;;;;;;;11.93;59.45;100733.76;1783278;80;21215;-58
2021/04/01 04:13:49;;;;;;;40.17;26.60;;;;;;;12.04;58.72;100730.54;1790420;80;21194;-59
2021/04/01 04:16:13;;;;;;;41.05;26.90;;;;;;;12.03;58.68;100741.72;1789466;80;20966;-59
2021/04/01 04:18:41;;;;;;;43.05;27.45;;;;;;;12.01;58.59;100730.23;1790067;80;20994;-57
2021/04/01 04:21:09;;;;;;;41.25;27.80;;;;;;;11.93;58.74;100723.40;1789799;80;21033;-57
2021/04/01 04:23:44;;;;;;;38.35;26.40;;;;;;;11.91;58.84;100719.58;1780926;80;20971;-59
2021/04/01 04:26:10;;;;;;;43.25;26.85;;;;;;;11.94;58.81;100727.21;1768876;80;21436;-60
2021/04/01 04:28:39;;;;;;;44.83;28.40;;;;;;;11.95;58.71;100720.67;1752807;81;21047;-62
2021/04/01 04:31:08;;;;;;;43.28;27.70;;;;;;;11.97;58.57;100725.06;1752874;81;21613;-61
2021/04/01 04:33:37;;;;;;;38.75;26.70;;;;;;;11.94;58.53;100714.95;1752665;81;21069;-62
2021/04/01 04:36:07;;;;;;;37.25;26.73;;;;;;;11.95;58.51;100712.48;1752801;81;20945;-59
2021/04/01 04:38:35;;;;;;;45.38;28.30;;;;;;;11.95;58.35;100707.03;1753019;81;21508;-59
2021/04/01 04:41:03;;;;;;;42.03;28.52;;;;;;;11.99;58.31;100709.24;1752770;81;20981;-58
2021/04/01 04:43:33;;;;;;;39.90;27.37;;;;;;;12.00;58.24;100704.87;1752829;81;21491;-59
2021/04/01 04:46:02;;;;;;;41.80;27.93;;;;;;;12.04;58.13;100709.27;1752795;81;21467;-58
2021/04/01 04:48:30;;;;;;;45.45;27.90;;;;;;;12.06;58.08;100689.36;1752918;81;21205;-56
2021/04/01 04:50:58;;;;;;;42.27;26.85;;;;;;;12.11;57.91;100694.28;1752886;81;21420;-59
2021/04/01 04:53:26;;;;;;;36.35;26.30;;;;;;;12.13;57.81;100698.13;1748139;80;21211;-57
2021/04/01 04:56:11;;;;;;;38.73;27.40;;;;;;;12.14;57.67;100691.58;1748071;82;21080;-57
2021/04/01 05:09:15;;;;;;;41.10;26.57;;;;;;;12.29;57.44;100678.54;1748009;81;21124;-61
2021/04/01 05:11:43;;;;;;;40.48;26.23;;;;;;;12.33;57.44;100679.11;1748096;82;21661;-61
2021/04/01 05:14:12;;;;;;;39.08;26.25;;;;;;;12.35;57.42;100681.55;1758357;80;20903;-58
2021/04/01 05:16:41;;;;;;;42.95;27.22;;;;;;;12.34;57.43;100679.38;1762291;80;21384;-59
2021/04/01 05:19:11;;;;;;;36.23;24.70;;;;;;;12.34;57.42;100667.09;1752077;81;21175;-60
2021/04/01 05:25:18;;;;;;;40.55;25.15;;;;;;;12.55;57.47;100668.50;1888185;76;28085;-58
2021/04/01 05:28:05;;;;;;;35.98;24.63;;;;;;;12.57;57.45;100660.85;1775054;80;20914;-58
2021/04/01 05:30:28;;;;;;;33.48;23.75;;;;;;;12.62;57.31;100667.69;1772586;81;22480;-57
2021/04/01 05:32:56;;;;;;;39.33;25.52;;;;;;;12.61;57.33;100664.14;1774962;80;20969;-58
2021/04/01 05:35:24;;;;;;;36.83;25.55;;;;;;;12.62;57.31;100664.95;1773545;81;21021;-60
2021/04/01 05:37:53;;;;;;;32.63;23.32;;;;;;;12.63;57.36;100667.44;1775148;80;21147;-59
2021/04/01 05:40:23;;;;;;;32.40;23.85;;;;;;;12.70;57.31;100658.97;1773568;81;21549;-58
2021/04/01 05:42:51;;;;;;;36.35;24.87;;;;;;;12.75;57.29;100671.26;1775170;80;21361;-59
2021/04/01 05:45:29;;;;;;;36.05;25.30;;;;;;;12.79;57.29;100666.09;1745817;81;21158;-59
2021/04/01 05:48:00;;;;;;;34.92;25.12;;;;;;;12.83;57.30;100664.45;1774976;80;20981;-58
2021/04/01 05:50:41;;;;;;;33.92;24.12;;;;;;;12.86;57.26;100657.88;1772963;81;21319;-59
2021/04/01 06:04:14;;;;;;;30.27;22.45;;;;;;;13.20;57.51;100649.14;1775305;80;21579;-59
2021/04/01 06:06:52;;;;;;;31.85;22.02;;;;;;;13.27;57.52;100638.77;1792652;80;20950;-58
2021/04/01 06:09:28;;;;;;;26.60;20.70;;;;;;;13.33;57.73;100635.47;1744267;82;21221;-60
2021/04/01 06:11:58;;;;;;;28.95;20.85;;;;;;;13.38;58.10;100636.31;1762246;81;20948;-59
2021/04/01 06:14:38;;;;;;;33.33;20.62;;;;;;;13.42;58.25;100641.47;1744620;82;21095;-59
2021/04/01 06:17:11;;;;;;;27.67;19.87;;;;;;;13.46;58.30;100628.08;1731505;82;21494;-60
2021/04/01 06:19:42;;;;;;;30.15;19.17;;;;;;;13.56;58.27;100627.23;1744654;82;21021;-59
2021/04/01 06:22:10;;;;;;;26.07;20.97;;;;;;;13.62;58.14;100622.02;1731405;82;21112;-59
2021/04/01 06:24:38;;;;;;;27.13;19.48;;;;;;;13.69;58.03;100620.64;1744665;82;21123;-59
2021/04/01 06:27:15;;;;;;;25.45;19.20;;;;;;;13.80;57.95;100618.67;1731512;82;20972;-60
2021/04/01 06:32:25;;;;;;;24.65;18.90;;;;;;;14.34;57.17;100631.51;1832296;77;28209;-60
2021/04/01 06:34:56;;;;;;;26.25;17.73;;;;;;;14.66;56.58;100630.25;1772882;80;21032;-60
2021/04/01 06:40:00;;;;;;;26.23;17.82;;;;;;;15.00;55.54;100630.23;1771399;79;21046;-58
2021/04/01 06:42:45;;;;;;;25.60;20.05;;;;;;;15.17;54.99;100621.59;1790661;80;20932;-58
2021/04/01 06:45:13;;;;;;;28.75;21.05;;;;;;;15.47;54.39;100615.80;1790675;79;26643;-57
2021/04/01 06:47:41;;;;;;;24.67;18.62;;;;;;;15.73;54.05;100615.53;1770943;80;21125;-60
2021/04/01 06:50:18;;;;;;;21.35;17.77;;;;;;;16.17;52.94;100620.73;1790514;79;22138;-56
2021/04/01 06:53:01;;;;;;;20.90;15.98;;;;;;;16.59;51.99;100614.89;1763317;79;20946;-57
2021/04/01 06:55:34;;;;;;;23.75;16.05;;;;;;;17.14;51.00;100606.03;1784997;80;21065;-57
2021/04/01 06:58:15;;;;;;;22.52;14.45;;;;;;;17.80;49.90;100603.41;1790331;79;21026;-61
2021/04/01 07:00:49;;;;;;;18.35;14.90;;;;;;;18.26;48.67;100604.59;1791079;79;20972;-61
2021/04/01 07:06:03;;;;;;;26.55;13.83;;;;;;;18.50;47.17;100608.45;1790635;78;21580;-61
2021/04/01 07:08:57;;;;;;;18.25;14.78;;;;;;;18.44;47.05;100609.67;1767652;79;21153;-63
2021/04/01 07:14:32;;;;;;;20.77;13.78;;;;;;;18.61;46.51;100594.67;1877739;75;22681;-62
2021/04/01 07:17:12;;;;;;;19.45;13.35;;;;;;;18.62;46.37;100591.35;1778112;80;21487;-67
2021/04/01 07:22:40;;;;;;;17.60;12.25;;;;;;;18.44;46.22;100593.70;1774893;80;21025;-65
2021/04/01 07:47:31;;;;;;;16.60;11.53;;;;;;;17.87;50.42;100561.95;1751148;81;21364;-68
2021/04/01 07:50:14;;;;;;;12.63;9.43;;;;;;;17.91;50.37;100569.03;1741202;82;21084;-69
2021/04/01 07:52:42;;;;;;;15.25;8.55;;;;;;;17.89;49.92;100558.87;1798107;79;20944;-63
2021/04/01 07:55:22;;;;;;;13.35;9.28;;;;;;;17.81;49.78;100571.44;1833831;77;21052;-66
2021/04/01 08:00:31;;;;;;;11.78;7.97;;;;;;;17.62;50.00;100568.77;1849726;77;22121;-65
2021/04/01 08:03:03;;;;;;;14.05;8.30;;;;;;;17.56;50.24;100565.87;1845192;77;21001;-68
2021/04/01 08:05:33;;;;;;;9.20;7.55;;;;;;;17.52;50.08;100564.04;1840571;77;20996;-60
2021/04/01 08:10:46;;;;;;;10.40;7.60;;;;;;;17.33;50.62;100556.70;1889899;76;22369;-67
2021/04/01 08:13:19;;;;;;;13.05;7.92;;;;;;;17.28;51.36;100550.48;1860776;77;21021;-68
2021/04/01 08:15:52;;;;;;;11.38;7.58;;;;;;;17.32;51.50;100548.20;1860820;77;21343;-67
2021/04/01 08:18:28;;;;;;;10.38;8.13;;;;;;;17.40;51.46;100550.00;1860780;77;20930;-69
2021/04/01 08:21:00;;;;;;;11.97;8.05;;;;;;;17.40;51.07;100538.44;1860847;77;21010;-62
2021/04/01 08:23:34;;;;;;;8.78;7.55;;;;;;;17.37;51.06;100539.03;1856037;77;20907;-63
2021/04/01 08:26:14;;;;;;;12.65;8.53;;;;;;;17.37;51.18;100532.16;1855971;77;21316;-68
2021/04/01 08:34:14;;;;;;;10.80;7.20;;;;;;;17.49;51.38;100531.66;1850442;75;21059;-65
2021/04/01 08:36:48;;;;;;;8.40;7.05;;;;;;;17.52;50.96;100523.59;1847605;77;21460;-70
2021/04/01 08:39:20;;;;;;;10.05;7.05;;;;;;;17.55;51.04;100517.48;1847960;77;20969;-70
2021/04/01 08:42:17;;;;;;;8.15;6.45;;;;;;;17.60;51.20;100509.69;1823017;77;21563;-67
2021/04/01 08:45:30;;;;;;;10.00;6.72;;;;;;;17.63;50.56;100509.87;1848415;77;21571;-61
2021/04/01 08:48:14;;;;;;;12.35;7.47;;;;;;;17.65;50.26;100519.21;1831312;77;20986;-64
2021/04/01 08:51:05;;;;;;;10.90;7.83;;;;;;;17.62;50.21;100505.50;1860814;77;21477;-66
2021/04/01 08:54:04;;;;;;;10.53;7.67;;;;;;;17.63;50.42;100499.42;1855966;76;20978;-62
2021/04/01 08:57:03;;;;;;;9.55;7.25;;;;;;;17.64;50.80;100498.33;1868907;76;22087;-64
2021/04/01 08:59:53;;;;;;;8.98;7.05;;;;;;;17.70;50.85;100490.77;1830125;77;20938;-63
2021/04/01 09:02:24;;;;;;;9.80;7.62;;;;;;;17.80;51.00;100483.13;1865741;76;20904;-64
2021/04/01 09:04:53;;;;;;;11.40;7.08;;;;;;;17.93;51.19;100480.06;1872121;76;20900;-64
2021/04/01 09:07:27;;;;;;;14.25;8.45;;;;;;;18.08;51.09;100472.83;1863404;76;21450;-59
2021/04/01 09:10:09;;;;;;;10.48;8.08;;;;;;;18.21;50.55;100464.27;1835039;78;21185;-61
2021/04/01 09:12:49;;;;;;;10.78;7.83;;;;;;;18.31;50.23;100465.95;1833038;77;21844;-64
2021/04/01 09:15:32;;;;;;;9.93;7.30;;;;;;;18.37;50.10;100461.38;1833172;78;20995;-61
2021/04/01 09:17:53;;;;;;;15.78;7.50;;;;;;;18.38;49.36;100463.56;1831821;78;21062;-62
2021/04/01 09:20:25;;;;;;;9.00;7.05;;;;;;;18.30;49.34;100480.30;1832914;78;20923;-61
2021/04/01 09:22:57;;;;;;;13.60;8.30;;;;;;;18.28;49.18;100458.31;1821840;78;21183;-63
2021/04/01 09:25:41;;;;;;;9.90;8.50;;;;;;;18.21;49.21;100457.95;1820169;78;21736;-62
2021/04/01 09:28:10;;;;;;;13.13;8.78;;;;;;;18.16;49.49;100461.64;1829462;78;20988;-66
2021/04/01 09:30:41;;;;;;;10.10;7.90;;;;;;;18.08;49.94;100449.42;1829404;78;20991;-65
2021/04/01 09:33:25;;;;;;;9.70;8.70;;;;;;;18.01;49.77;100461.45;1829654;78;20908;-67
2021/04/01 09:35:44;;;;;;;12.13;8.43;;;;;;;17.97;49.70;100449.99;1828067;78;21361;-65
2021/04/01 09:38:13;;;;;;;11.78;8.95;;;;;;;17.95;50.16;100439.87;1829966;78;21003;-67
2021/04/01 09:40:44;;;;;;;9.98;7.72;;;;;;;18.06;50.21;100453.06;1830192;78;21021;-62
2021/04/01 09:43:21;;;;;;;10.45;7.35;;;;;;;18.13;49.67;100442.41;1827970;78;20928;-63
2021/04/01 09:45:52;;;;;;;10.60;8.13;;;;;;;18.20;49.72;100437.87;1813489;79;20923;-68
2021/04/01 09:48:24;;;;;;;12.80;8.13;;;;;;;18.28;49.63;100433.53;1786351;78;22256;-66
2021/04/01 09:50:58;;;;;;;10.88;8.15;;;;;;;18.37;49.35;100433.83;1813101;79;20994;-63
2021/04/01 09:53:23;;;;;;;10.40;7.58;;;;;;;18.41;48.53;100442.28;1812209;78;20915;-65
2021/04/01 09:55:55;;;;;;;12.53;8.65;;;;;;;18.40;48.22;100429.65;1829596;78;21545;-66
2021/04/01 09:58:33;;;;;;;11.45;7.97;;;;;;;18.37;48.11;100429.70;1829498;78;21023;-65
2021/04/01 10:01:30;;;;;;;10.43;8.03;;;;;;;18.39;48.01;100439.02;1829636;78;21198;-72
2021/04/01 10:04:19;;;;;;;15.10;8.65;;;;;;;18.42;48.18;100424.63;1817566;78;20963;-67
2021/04/01 10:06:50;;;;;;;9.83;7.62;;;;;;;18.47;48.48;100419.55;1786415;79;21010;-68
2021/04/01 10:09:26;;;;;;;10.45;8.35;;;;;;;18.57;48.40;100405.50;1789472;78;21547;-66
2021/04/01 10:12:04;;;;;;;13.78;8.78;;;;;;;18.65;47.88;100408.30;1793867;78;21041;-66
2021/04/01 10:14:34;;;;;;;12.63;8.88;;;;;;;18.70;47.75;100402.41;1825401;78;23618;-67
2021/04/01 10:17:14;;;;;;;11.20;8.30;;;;;;;18.75;47.70;100405.02;1775672;79;21179;-69
2021/04/01 10:19:49;;;;;;;10.82;8.20;;;;;;;18.77;47.55;100391.76;1792051;78;21004;-64
2021/04/01 10:22:27;;;;;;;11.22;8.48;;;;;;;18.82;47.62;100401.26;1766203;78;21130;-68
2021/04/01 10:25:18;;;;;;;16.52;8.93;;;;;;;18.88;47.49;100384.25;1826358;78;21027;-68
2021/04/01 10:28:02;;;;;;;28.38;8.35;;;;;;;18.99;47.26;100378.44;1826260;78;21199;-72
2021/04/01 10:30:34;;;;;;;15.80;7.72;;;;;;;19.08;47.26;100362.16;1825929;78;21031;-69
2021/04/01 10:33:15;;;;;;;10.30;8.15;;;;;;;19.21;47.65;100360.41;1826587;78;20920;-70
2021/04/01 10:35:44;;;;;;;11.33;8.20;;;;;;;19.36;46.90;100368.22;1821509;78;21073;-66
2021/04/01 10:38:12;;;;;;;11.10;7.33;;;;;;;19.41;46.21;100369.97;1794158;78;21608;-71
2021/04/01 10:40:40;;;;;;;10.38;8.65;;;;;;;19.39;45.93;100365.36;1794602;78;22236;-74
2021/04/01 10:43:10;;;;;;;13.22;8.35;;;;;;;19.39;45.92;100352.37;1824729;78;21063;-71
2021/04/01 10:45:40;;;;;;;10.58;7.55;;;;;;;19.42;45.70;100362.78;1824596;78;20986;-71
2021/04/01 10:48:23;;;;;;;10.72;8.45;;;;;;;19.43;45.70;100351.98;1824498;78;21070;-72
2021/04/01 10:50:53;;;;;;;9.17;8.20;;;;;;;19.47;45.28;100345.25;1824833;78;20994;-69
2021/04/01 10:53:23;;;;;;;11.10;8.60;;;;;;;19.51;45.38;100332.98;1824692;78;21239;-70
2021/04/01 10:55:52;;;;;;;9.70;7.15;;;;;;;19.53;45.57;100335.67;1824569;78;21089;-73
2021/04/01 10:58:21;;;;;;;9.03;7.17;;;;;;;19.59;45.49;100335.77;1824545;78;20927;-73
2021/04/01 11:00:56;;;;;;;11.10;7.97;;;;;;;19.69;45.06;100331.30;1824469;78;21016;-72
2021/04/01 11:03:28;;;;;;;10.82;7.40;;;;;;;19.79;44.25;100328.77;1824463;78;21103;-73
2021/04/01 11:05:56;;;;;;;12.68;7.40;;;;;;;19.85;43.89;100317.80;1793992;78;21419;-74
2021/04/01 11:08:25;;;;;;;12.85;7.10;;;;;;;19.94;43.72;100322.73;1837339;76;21055;-73
2021/04/01 11:11:00;;;;;;;10.28;7.37;;;;;;;19.97;44.04;100314.34;1805250;78;21172;-71
2021/04/01 11:13:37;;;;;;;9.68;7.65;;;;;;;20.02;44.02;100309.22;1815109;78;21538;-67
2021/04/01 11:16:08;;;;;;;9.15;5.85;;;;;;;20.09;43.60;100309.55;1807485;79;21055;-72
2021/04/01 11:18:41;;;;;;;12.07;6.45;;;;;;;20.14;43.82;100303.27;1794451;80;21376;-74
2021/04/01 11:21:10;;;;;;;7.17;5.05;;;;;;;20.24;43.10;100307.63;1794302;80;20947;-67
2021/04/01 11:23:38;;;;;;;6.78;5.58;;;;;;;20.34;42.40;100285.73;1807151;78;21537;-70
2021/04/01 11:26:06;;;;;;;8.45;4.80;;;;;;;20.43;42.13;100283.73;1813184;79;21082;-67
2021/04/01 11:28:46;;;;;;;8.43;4.62;;;;;;;20.57;41.75;100277.98;1813419;79;21014;-70
2021/04/01 11:31:26;;;;;;;6.78;5.10;;;;;;;20.69;40.93;100285.01;1813372;78;21357;-78
2021/04/01 11:33:54;;;;;;;7.62;4.10;;;;;;;20.76;40.31;100277.56;1813394;79;20939;-73
2021/04/01 11:36:26;;;;;;;4.70;3.83;;;;;;;20.84;39.75;100273.94;1786201;79;21584;-72
2021/04/01 11:39:01;;;;;;;8.05;4.85;;;;;;;20.91;39.78;100271.44;1813484;78;21539;-71
2021/04/01 11:41:29;;;;;;;3.47;2.83;;;;;;;20.94;39.20;100261.91;1810255;79;21063;-68
2021/04/01 11:43:58;;;;;;;7.12;2.98;;;;;;;21.01;38.00;100271.61;1813368;79;21316;-70
2021/04/01 11:46:28;;;;;;;5.60;2.95;;;;;;;21.08;37.16;100263.58;1805767;79;21167;-70
2021/04/01 11:48:58;;;;;;;4.15;3.55;;;;;;;21.14;36.72;100269.16;1779113;79;21056;-72
2021/04/01 11:51:35;;;;;;;6.03;3.55;;;;;;;21.18;36.69;100258.44;1813239;79;21021;-67
2021/04/01 11:54:06;;;;;;;7.62;3.77;;;;;;;21.20;36.67;100246.48;1823477;77;20933;-69
2021/04/01 11:56:37;;;;;;;4.47;3.40;;;;;;;21.25;36.66;100241.31;1846613;77;21185;-70
2021/04/01 11:59:10;;;;;;;5.65;3.42;;;;;;;21.28;36.70;100245.34;1764404;80;21028;-68
2021/04/01 12:01:56;;;;;;;5.20;3.45;;;;;;;21.36;36.53;100237.00;1762710;81;21079;-78
2021/04/01 12:04:26;;;;;;;5.80;3.22;;;;;;;21.41;36.46;100235.41;1787081;80;21016;-73
2021/04/01 12:06:54;;;;;;;4.55;3.45;;;;;;;21.47;35.91;100229.89;1787085;80;20937;-71
2021/04/01 12:09:22;;;;;;;6.37;4.17;;;;;;;21.50;35.37;100221.49;1727628;81;22255;-72
2021/04/01 12:11:52;;;;;;;6.20;4.08;;;;;;;21.51;35.20;100228.64;1769183;80;21196;-71
2021/04/01 12:14:20;;;;;;;7.55;4.83;;;;;;;21.50;35.55;100219.53;1770631;81;20972;-72
2021/04/01 12:16:50;;;;;;;7.65;4.90;;;;;;;21.49;35.62;100212.93;1740791;81;21055;-74
2021/04/01 12:19:19;;;;;;;4.75;4.35;;;;;;;21.47;35.77;100204.17;1741283;81;21008;-73
2021/04/01 12:21:47;;;;;;;9.68;6.08;;;;;;;21.46;36.00;100197.83;1716887;81;21384;-71
2021/04/01 12:24:14;;;;;;;6.58;4.65;;;;;;;21.48;35.84;100201.05;1765696;81;21064;-73
2021/04/01 12:26:48;;;;;;;6.10;4.78;;;;;;;21.46;35.40;100195.06;1733688;81;20994;-74
2021/04/01 12:29:17;;;;;;;7.55;4.83;;;;;;;21.45;35.53;100189.88;1765069;81;21155;-72
2021/04/01 12:31:55;;;;;;;12.05;5.50;;;;;;;21.46;35.43;100203.95;1765055;81;21578;-69
2021/04/01 12:34:30;;;;;;;7.10;5.20;;;;;;;21.48;35.62;100180.88;1764941;81;22087;-73
2021/04/01 12:37:02;;;;;;;8.08;4.90;;;;;;;21.53;35.63;100181.23;1765047;81;21016;-70
2021/04/01 12:39:33;;;;;;;9.55;4.75;;;;;;;21.54;35.75;100175.34;1733970;81;21095;-71
2021/04/01 12:42:04;;;;;;;5.42;4.47;;;;;;;21.60;35.78;100162.13;1765042;81;21491;-72
2021/04/01 12:44:40;;;;;;;7.42;4.87;;;;;;;21.67;35.36;100163.16;1733771;81;20964;-73
2021/04/01 12:47:08;;;;;;;5.58;4.92;;;;;;;21.70;35.16;100162.48;1733689;81;21372;-70
2021/04/01 12:49:37;;;;;;;5.70;4.83;;;;;;;21.72;35.25;100161.55;1765012;81;21037;-71
2021/04/01 12:52:09;;;;;;;5.90;4.80;;;;;;;21.72;35.55;100155.20;1733290;81;21626;-73
2021/04/01 12:54:41;;;;;;;5.30;4.35;;;;;;;21.74;35.75;100157.84;1765111;81;21059;-73
2021/04/01 12:57:18;;;;;;;7.25;5.37;;;;;;;21.79;35.86;100158.78;1765308;81;21147;-72
2021/04/01 12:59:51;;;;;;;9.60;4.80;;;;;;;21.78;35.82;100161.32;1760444;81;21368;-72
2021/04/01 13:02:21;;;;;;;9.90;5.45;;;;;;;21.74;35.86;100145.39;1765101;81;21037;-71
2021/04/01 13:04:59;;;;;;;9.78;4.53;;;;;;;21.72;35.94;100145.52;1765284;81;21175;-73